Time;durP1;ratioP1;P1;durP2;ratioP2;P2;SDS_P1;SDS_P2;PMS_P1;PMS_P2;Temp;Humidity;BMP_temperature;BMP_pressure;BME280_temperature;BME280_humidity;BME280_pressure;Samples;Min_cycle;Max_cycle;Signal;HPM_P1;HPM_P2
2023/04/16 00:00:57;;;;;;;15.95;14.35;;;10.20;99.90;;;;;;4971591;28;20096;-59
2023/04/16 00:03:43;;;;;;;16.85;15.15;;;10.30;99.90;;;;;;4973703;28;20031;-54
2023/04/16 00:06:29;;;;;;;17.27;14.77;;;10.30;99.90;;;;;;4971676;28;20110;-56
2023/04/16 00:09:15;;;;;;;15.57;13.80;;;10.30;99.90;;;;;;4971813;28;20031;-58
2023/04/16 00:12:01;;;;;;;16.52;14.73;;;10.30;99.90;;;;;;4974239;28;20030;-58
2023/04/16 00:14:48;;;;;;;16.52;14.82;;;10.30;99.90;;;;;;4983804;28;20050;-57
2023/04/16 00:17:34;;;;;;;15.77;14.18;;;10.40;99.90;;;;;;4980288;28;20027;-55
2023/04/16 00:20:20;;;;;;;16.55;14.85;;;10.40;99.90;;;;;;4971809;28;20411;-57
2023/04/16 00:23:06;;;;;;;14.73;13.23;;;10.40;99.90;;;;;;4957315;28;20114;-56
2023/04/16 00:25:52;;;;;;;15.00;13.38;;;10.40;99.90;;;;;;4970973;28;20034;-57
2023/04/16 00:28:38;;;;;;;14.93;13.43;;;10.40;99.90;;;;;;4956842;28;20507;-55
2023/04/16 00:31:29;;;;;;;15.07;13.48;;;10.50;99.90;;;;;;4971195;28;20404;-52
2023/04/16 00:34:15;;;;;;;14.63;13.13;;;10.40;99.90;;;;;;4971133;28;20035;-54
2023/04/16 00:37:01;;;;;;;15.27;13.52;;;10.40;99.90;;;;;;4970779;28;20030;-56
2023/04/16 00:39:47;;;;;;;14.98;13.38;;;10.40;99.90;;;;;;4950844;28;20035;-54
2023/04/16 00:42:33;;;;;;;14.55;12.95;;;10.40;99.90;;;;;;4937823;29;20622;-51
2023/04/16 00:45:19;;;;;;;17.00;14.93;;;10.40;99.90;;;;;;4970380;28;20038;-50
2023/04/16 00:48:05;;;;;;;16.45;14.70;;;10.40;99.90;;;;;;4966651;28;20452;-51
2023/04/16 00:50:51;;;;;;;16.42;14.55;;;10.40;99.90;;;;;;4958726;28;20026;-50
2023/04/16 00:53:37;;;;;;;16.80;15.07;;;10.50;99.90;;;;;;4971631;28;20058;-51
2023/04/16 00:56:24;;;;;;;16.48;14.77;;;10.50;99.90;;;;;;4971610;28;20519;-51
2023/04/16 00:59:10;;;;;;;16.10;14.43;;;10.50;99.90;;;;;;4970276;28;20031;-50
2023/04/16 01:01:56;;;;;;;16.05;14.45;;;10.60;99.90;;;;;;4970363;28;20030;-53
2023/04/16 01:04:42;;;;;;;16.25;14.50;;;10.60;99.90;;;;;;4970098;28;20110;-54
2023/04/16 01:07:28;;;;;;;15.68;14.00;;;10.50;99.90;;;;;;4970915;28;20030;-55
2023/04/16 01:10:14;;;;;;;15.45;13.85;;;10.50;99.90;;;;;;4970721;28;20030;-55
2023/04/16 01:13:00;;;;;;;17.17;15.35;;;10.50;99.90;;;;;;4982815;28;20058;-51
2023/04/16 01:15:46;;;;;;;16.13;14.30;;;10.40;99.90;;;;;;4953599;28;20563;-51
2023/04/16 01:18:32;;;;;;;15.88;14.18;;;10.40;99.90;;;;;;4970534;28;20562;-51
2023/04/16 01:21:18;;;;;;;16.17;14.15;;;10.40;99.90;;;;;;4970829;28;20041;-50
2023/04/16 01:24:04;;;;;;;16.85;15.13;;;10.50;99.90;;;;;;4970376;28;20038;-53
2023/04/16 01:26:50;;;;;;;16.38;14.68;;;10.40;99.90;;;;;;4970690;28;20113;-54
2023/04/16 01:29:36;;;;;;;16.65;14.95;;;10.50;99.90;;;;;;4970566;28;20496;-58
2023/04/16 01:32:22;;;;;;;17.17;15.38;;;10.50;99.90;;;;;;4971653;28;20113;-55
2023/04/16 01:35:08;;;;;;;21.60;17.83;;;10.40;99.90;;;;;;4971468;28;20035;-52
2023/04/16 01:37:54;;;;;;;17.65;15.55;;;10.40;99.90;;;;;;4971602;28;20027;-59
2023/04/16 01:40:40;;;;;;;17.17;15.45;;;10.40;99.90;;;;;;4975061;28;20027;-54
2023/04/16 01:43:26;;;;;;;16.10;14.40;;;10.40;99.90;;;;;;4974321;28;20034;-59
2023/04/16 01:46:30;;;;;;;16.67;14.73;;;10.40;99.90;;;;;;4973742;28;20034;-54
2023/04/16 01:49:17;;;;;;;14.85;13.32;;;10.40;99.90;;;;;;4974268;28;20353;-55
2023/04/16 01:52:03;;;;;;;15.80;14.20;;;10.40;99.90;;;;;;4973748;28;20026;-56
2023/04/16 01:54:49;;;;;;;14.10;12.60;;;10.40;99.90;;;;;;4973773;28;20030;-57
2023/04/16 01:57:35;;;;;;;14.35;12.95;;;10.50;99.90;;;;;;4974090;28;20570;-62
2023/04/16 02:00:21;;;;;;;13.73;12.32;;;10.50;99.90;;;;;;4972705;28;20081;-59
2023/04/16 02:03:07;;;;;;;14.10;12.68;;;10.40;99.90;;;;;;4973894;28;20507;-58
2023/04/16 02:05:53;;;;;;;12.50;11.30;;;10.50;99.90;;;;;;4973192;28;20031;-60
2023/04/16 02:08:40;;;;;;;12.65;11.38;;;10.50;99.90;;;;;;4974176;28;20455;-60
2023/04/16 02:11:26;;;;;;;13.15;11.85;;;10.50;99.90;;;;;;4973623;28;20027;-58
2023/04/16 02:14:12;;;;;;;12.15;10.60;;;10.50;99.90;;;;;;4941106;28;20497;-61
2023/04/16 02:16:59;;;;;;;13.30;11.90;;;10.40;99.90;;;;;;4957112;28;20037;-60
2023/04/16 02:19:45;;;;;;;12.70;11.40;;;10.40;99.90;;;;;;4955216;28;20493;-59
2023/04/16 02:22:31;;;;;;;11.75;10.60;;;10.40;99.90;;;;;;4961177;28;20035;-58
2023/04/16 02:25:17;;;;;;;12.95;11.65;;;10.40;99.90;;;;;;4973392;28;20046;-56
2023/04/16 02:28:03;;;;;;;12.50;11.25;;;10.40;99.90;;;;;;4973527;28;20034;-60
2023/04/16 02:30:49;;;;;;;11.57;10.48;;;10.50;99.90;;;;;;4973299;28;20504;-56
2023/04/16 02:33:35;;;;;;;13.52;12.18;;;10.50;99.90;;;;;;4972090;28;20554;-56
2023/04/16 02:36:21;;;;;;;12.13;10.63;;;10.40;99.90;;;;;;4973770;28;20062;-56
2023/04/16 02:39:07;;;;;;;12.07;10.88;;;10.20;99.90;;;;;;4972458;28;20027;-57
2023/04/16 02:41:53;;;;;;;11.23;10.13;;;10.20;99.90;;;;;;4973365;28;20023;-59
2023/04/16 02:44:39;;;;;;;10.63;9.63;;;10.20;99.90;;;;;;4972995;28;20114;-54
2023/04/16 02:47:25;;;;;;;11.95;10.75;;;10.10;99.90;;;;;;4972951;28;20026;-55
2023/04/16 02:50:11;;;;;;;11.20;10.10;;;10.10;99.90;;;;;;4951898;28;20120;-52
2023/04/16 02:52:57;;;;;;;12.40;11.10;;;10.20;99.90;;;;;;4958070;28;20034;-59
2023/04/16 02:55:51;;;;;;;19.48;15.38;;;10.10;99.90;;;;;;4972895;28;20502;-53
2023/04/16 02:58:37;;;;;;;22.05;17.98;;;10.10;99.90;;;;;;4973210;28;20043;-59
2023/04/16 03:01:23;;;;;;;22.05;18.52;;;10.00;99.90;;;;;;4971716;28;20563;-56
2023/04/16 03:04:09;;;;;;;28.48;21.73;;;10.00;99.90;;;;;;4972590;28;20404;-54
2023/04/16 03:06:55;;;;;;;31.85;24.92;;;10.00;99.90;;;;;;4973260;28;20034;-53
2023/04/16 03:09:41;;;;;;;31.20;26.35;;;9.90;99.90;;;;;;4972007;28;20031;-57
2023/04/16 03:12:27;;;;;;;32.78;26.67;;;9.90;99.90;;;;;;4966976;28;20043;-53
2023/04/16 03:15:13;;;;;;;30.95;26.88;;;9.90;99.90;;;;;;4972805;28;20073;-55
2023/04/16 03:17:59;;;;;;;32.75;26.65;;;9.90;99.90;;;;;;4971611;28;20038;-57
2023/04/16 03:20:45;;;;;;;29.90;25.63;;;9.90;99.90;;;;;;4962417;28;20468;-56
2023/04/16 03:23:31;;;;;;;31.70;26.92;;;9.90;99.90;;;;;;4949725;28;20041;-54
2023/04/16 03:26:17;;;;;;;30.85;25.23;;;9.90;99.90;;;;;;4971749;28;20023;-58
2023/04/16 03:29:03;;;;;;;30.35;26.02;;;9.90;99.90;;;;;;4971882;28;20436;-54
2023/04/16 03:31:48;;;;;;;31.02;25.67;;;9.90;99.90;;;;;;4972881;28;20377;-52
2023/04/16 03:34:35;;;;;;;32.05;25.25;;;9.90;99.90;;;;;;4953523;28;20031;-56
2023/04/16 03:37:21;;;;;;;36.33;27.08;;;9.90;99.90;;;;;;4954086;28;20483;-54
2023/04/16 03:40:08;;;;;;;32.90;26.85;;;9.80;99.90;;;;;;4972058;28;20042;-56
2023/04/16 03:42:53;;;;;;;36.47;27.85;;;9.80;99.90;;;;;;4971847;28;20512;-53
2023/04/16 03:45:44;;;;;;;39.20;30.58;;;9.80;99.90;;;;;;4972814;28;20499;-53
2023/04/16 03:48:30;;;;;;;29.10;25.58;;;9.80;99.90;;;;;;4970969;28;20034;-52
2023/04/16 03:51:16;;;;;;;32.08;26.73;;;9.70;99.90;;;;;;4972329;28;20106;-56
2023/04/16 03:54:02;;;;;;;32.58;27.40;;;9.80;99.90;;;;;;4971306;28;20118;-54
2023/04/16 03:56:48;;;;;;;35.15;27.75;;;9.80;99.90;;;;;;4971950;28;20114;-57
2023/04/16 03:59:33;;;;;;;36.60;29.00;;;9.60;99.90;;;;;;4971784;28;20038;-58
2023/04/16 04:02:19;;;;;;;38.40;30.80;;;9.70;99.90;;;;;;4972192;28;20077;-56
2023/04/16 04:05:06;;;;;;;35.75;28.58;;;9.70;99.90;;;;;;4972515;28;20027;-56
2023/04/16 04:07:52;;;;;;;39.13;29.50;;;9.70;99.90;;;;;;4970674;28;20404;-55
2023/04/16 04:10:38;;;;;;;35.97;28.88;;;9.60;99.90;;;;;;4971727;28;20034;-52
2023/04/16 04:13:24;;;;;;;40.00;30.90;;;9.60;99.90;;;;;;4970819;28;20031;-52
2023/04/16 04:16:10;;;;;;;36.45;28.70;;;9.60;99.90;;;;;;4971888;28;20038;-54
2023/04/16 04:18:56;;;;;;;37.58;29.20;;;9.60;99.90;;;;;;4971552;28;20478;-51
2023/04/16 04:21:42;;;;;;;37.22;29.73;;;9.40;99.90;;;;;;4971729;28;20031;-53
2023/04/16 04:24:28;;;;;;;41.90;31.15;;;9.40;99.90;;;;;;4970309;28;20027;-57
2023/04/16 04:27:14;;;;;;;40.85;30.35;;;9.40;99.90;;;;;;4952133;29;20080;-54
2023/04/16 04:30:00;;;;;;;43.17;31.42;;;9.30;99.90;;;;;;4954081;28;20031;-52
2023/04/16 04:32:46;;;;;;;42.70;30.98;;;9.30;99.90;;;;;;4971466;28;20093;-53
2023/04/16 04:35:32;;;;;;;45.40;31.70;;;9.20;99.90;;;;;;4971192;28;20499;-55
2023/04/16 04:38:20;;;;;;;42.88;31.02;;;9.20;99.90;;;;;;4972086;28;20054;-51
2023/04/16 04:41:06;;;;;;;43.15;31.80;;;9.20;99.90;;;;;;4974186;28;20038;-51
2023/04/16 04:43:52;;;;;;;42.60;30.33;;;9.10;99.90;;;;;;4981197;28;20031;-57
2023/04/16 04:46:39;;;;;;;41.35;31.00;;;9.20;99.90;;;;;;4982363;28;20038;-56
2023/04/16 04:49:25;;;;;;;43.00;31.35;;;9.20;99.90;;;;;;4980918;28;20062;-55
2023/04/16 04:52:11;;;;;;;42.85;31.40;;;9.20;99.90;;;;;;4972287;28;20077;-49
2023/04/16 04:54:57;;;;;;;40.88;30.15;;;9.30;99.90;;;;;;4976889;28;20556;-56
2023/04/16 04:57:43;;;;;;;37.13;29.70;;;9.20;99.90;;;;;;4958620;28;20062;-56
2023/04/16 05:00:29;;;;;;;38.80;29.40;;;9.20;99.90;;;;;;4962781;28;20027;-55
2023/04/16 05:03:20;;;;;;;36.75;28.33;;;9.20;99.90;;;;;;4971350;28;20046;-52
2023/04/16 05:06:06;;;;;;;37.75;29.40;;;9.10;99.90;;;;;;4970361;28;20113;-57
2023/04/16 05:08:52;;;;;;;36.03;29.20;;;9.10;99.90;;;;;;4971926;28;20037;-57
2023/04/16 05:11:39;;;;;;;40.33;28.90;;;9.10;99.90;;;;;;4971823;28;20042;-58
2023/04/16 05:14:25;;;;;;;32.65;26.42;;;9.10;99.90;;;;;;4974957;28;20037;-52
2023/04/16 05:17:11;;;;;;;36.85;27.77;;;9.20;99.90;;;;;;4973796;28;20038;-52
2023/04/16 05:19:57;;;;;;;35.42;27.88;;;9.20;99.90;;;;;;4973547;28;20118;-58
2023/04/16 05:22:43;;;;;;;36.40;29.30;;;9.10;99.90;;;;;;4975455;28;20035;-55
2023/04/16 05:25:29;;;;;;;36.00;28.77;;;9.00;99.90;;;;;;4974908;28;20035;-56
2023/04/16 05:28:15;;;;;;;34.50;27.10;;;9.00;99.90;;;;;;4974739;28;20046;-53
2023/04/16 05:31:01;;;;;;;37.95;29.15;;;9.10;99.90;;;;;;4974836;28;20041;-55
2023/04/16 05:33:47;;;;;;;35.45;28.60;;;9.10;99.90;;;;;;4960467;28;20129;-56
2023/04/16 05:36:33;;;;;;;36.90;28.02;;;9.10;99.90;;;;;;4973468;28;20199;-49
2023/04/16 05:39:19;;;;;;;38.95;28.25;;;9.00;99.90;;;;;;4973546;28;20488;-54
2023/04/16 05:42:05;;;;;;;38.47;29.45;;;9.00;99.90;;;;;;4973267;28;20539;-55
2023/04/16 05:44:51;;;;;;;33.45;26.17;;;9.10;99.90;;;;;;4973038;28;20439;-52
2023/04/16 05:47:37;;;;;;;38.50;27.55;;;9.10;99.90;;;;;;4974682;28;20035;-57
2023/04/16 05:50:23;;;;;;;37.35;27.75;;;9.10;99.90;;;;;;4974568;28;20035;-53
2023/04/16 05:53:09;;;;;;;34.20;27.75;;;9.20;99.90;;;;;;4973062;28;20027;-50
2023/04/16 05:55:55;;;;;;;34.22;27.55;;;9.20;99.90;;;;;;4971501;28;20193;-53
2023/04/16 05:58:41;;;;;;;38.17;28.92;;;9.10;99.90;;;;;;4973546;28;20458;-54
2023/04/16 06:01:27;;;;;;;37.03;29.60;;;9.20;99.90;;;;;;4973902;28;20027;-52
2023/04/16 06:04:13;;;;;;;36.58;29.15;;;9.10;99.90;;;;;;4973879;28;20637;-55
2023/04/16 06:06:59;;;;;;;43.00;31.08;;;9.10;99.90;;;;;;4973547;28;20031;-52
2023/04/16 06:09:45;;;;;;;38.53;30.40;;;9.10;99.90;;;;;;4953328;28;20067;-56
2023/04/16 06:12:31;;;;;;;37.20;29.95;;;9.10;99.90;;;;;;4957277;28;20038;-58
2023/04/16 06:15:17;;;;;;;38.42;30.48;;;9.00;99.90;;;;;;4959738;28;20089;-57
2023/04/16 06:18:04;;;;;;;39.47;31.02;;;9.10;99.90;;;;;;4973120;28;20038;-54
2023/04/16 06:20:50;;;;;;;40.13;32.97;;;9.10;99.90;;;;;;4973827;28;20403;-54
2023/04/16 06:23:35;;;;;;;42.50;32.05;;;9.10;99.90;;;;;;4972167;28;20066;-57
2023/04/16 06:26:22;;;;;;;40.85;30.23;;;9.20;99.90;;;;;;4974089;28;20030;-53
2023/04/16 06:29:07;;;;;;;42.25;31.00;;;9.20;99.90;;;;;;4973092;28;20531;-54
2023/04/16 06:31:54;;;;;;;40.83;31.48;;;9.10;99.90;;;;;;4972447;28;20587;-55
2023/04/16 06:34:40;;;;;;;38.38;30.80;;;9.20;99.90;;;;;;4973787;28;20050;-51
2023/04/16 06:37:26;;;;;;;44.08;30.70;;;9.30;99.90;;;;;;4973040;28;20396;-53
2023/04/16 06:40:12;;;;;;;39.95;30.95;;;9.30;99.90;;;;;;4973253;28;20562;-54
2023/04/16 06:42:58;;;;;;;45.20;31.98;;;9.30;99.90;;;;;;4978132;28;20042;-56
2023/04/16 06:45:44;;;;;;;39.20;30.80;;;9.30;99.90;;;;;;4980368;28;20031;-58
2023/04/16 06:48:30;;;;;;;40.78;31.63;;;9.10;99.90;;;;;;4976796;28;20105;-58
2023/04/16 06:51:16;;;;;;;42.08;32.10;;;9.10;99.90;;;;;;4974338;28;20039;-53
2023/04/16 06:54:02;;;;;;;41.35;32.45;;;9.20;99.90;;;;;;4975120;28;20089;-53
2023/04/16 06:56:48;;;;;;;40.83;31.33;;;9.20;99.90;;;;;;4939827;29;20381;-55
2023/04/16 06:59:34;;;;;;;38.78;29.13;;;9.20;99.90;;;;;;4957151;28;20393;-53
2023/04/16 07:02:20;;;;;;;41.90;29.70;;;9.20;99.90;;;;;;4952308;28;20532;-57
2023/04/16 07:05:06;;;;;;;37.30;28.08;;;9.30;99.90;;;;;;4960737;28;20656;-54
2023/04/16 07:07:52;;;;;;;30.95;26.73;;;9.30;99.90;;;;;;4972660;28;20031;-51
2023/04/16 07:10:38;;;;;;;30.45;25.55;;;9.30;99.90;;;;;;4973095;28;20101;-52
2023/04/16 07:13:24;;;;;;;28.55;23.52;;;9.40;99.90;;;;;;4973018;28;20046;-56
2023/04/16 07:16:10;;;;;;;33.25;25.98;;;9.50;99.90;;;;;;4971492;28;20042;-57
2023/04/16 07:18:56;;;;;;;28.48;23.25;;;9.50;99.90;;;;;;4972171;28;20093;-56
2023/04/16 07:21:42;;;;;;;30.35;24.40;;;9.40;99.90;;;;;;4973083;28;20047;-51
2023/04/16 07:24:28;;;;;;;28.80;25.15;;;9.40;99.90;;;;;;4971751;28;20035;-58
2023/04/16 07:27:15;;;;;;;30.90;25.13;;;9.40;99.90;;;;;;4972339;28;20034;-58
2023/04/16 07:30:01;;;;;;;29.92;24.13;;;9.50;99.90;;;;;;4970843;28;20035;-57
2023/04/16 07:32:47;;;;;;;28.38;23.60;;;9.40;99.90;;;;;;4973294;28;20034;-54
2023/04/16 07:35:33;;;;;;;27.40;23.98;;;9.40;99.90;;;;;;4958023;28;20045;-55
2023/04/16 07:38:19;;;;;;;33.03;25.48;;;9.30;99.90;;;;;;4972660;28;20030;-58
2023/04/16 07:41:05;;;;;;;33.47;26.20;;;9.30;99.90;;;;;;4972390;28;20031;-56
2023/04/16 07:43:51;;;;;;;28.98;24.58;;;9.20;99.90;;;;;;4977060;28;20033;-57
2023/04/16 07:46:37;;;;;;;31.40;24.23;;;9.20;99.90;;;;;;4978545;28;20027;-58
2023/04/16 07:49:23;;;;;;;30.52;25.50;;;9.30;99.90;;;;;;4975189;28;20082;-54
2023/04/16 07:52:09;;;;;;;33.80;25.80;;;9.20;99.90;;;;;;4978206;28;20038;-53
2023/04/16 07:54:54;;;;;;;31.75;25.42;;;9.20;99.90;;;;;;4976361;28;20093;-54
2023/04/16 07:57:40;;;;;;;34.88;27.65;;;9.10;99.90;;;;;;4976270;28;20043;-55
2023/04/16 08:00:26;;;;;;;34.40;27.50;;;9.00;99.90;;;;;;4971933;28;20159;-52
2023/04/16 08:03:14;;;;;;;34.22;27.30;;;9.00;99.90;;;;;;4972946;28;20394;-52
2023/04/16 08:06:00;;;;;;;33.33;25.50;;;9.00;99.90;;;;;;4972223;28;20035;-55
2023/04/16 08:08:46;;;;;;;33.90;26.20;;;9.00;99.90;;;;;;4972499;28;20027;-53
2023/04/16 08:11:32;;;;;;;32.03;24.88;;;9.10;99.90;;;;;;4972637;28;20033;-56
2023/04/16 08:14:19;;;;;;;30.55;26.27;;;9.10;99.90;;;;;;4957635;28;20027;-56
2023/04/16 08:17:05;;;;;;;31.73;25.17;;;9.10;99.90;;;;;;4971686;28;20031;-54
2023/04/16 08:19:50;;;;;;;28.05;23.20;;;9.10;99.90;;;;;;4949466;28;20527;-57
2023/04/16 08:22:36;;;;;;;28.75;24.08;;;9.20;99.90;;;;;;4952674;29;20033;-57
2023/04/16 08:25:23;;;;;;;24.65;20.88;;;9.30;99.90;;;;;;4965138;28;20023;-55
2023/04/16 08:28:09;;;;;;;32.92;24.92;;;9.30;99.90;;;;;;4971975;28;20035;-55
2023/04/16 08:30:55;;;;;;;28.65;23.95;;;9.30;99.90;;;;;;4971490;28;20122;-55
2023/04/16 08:33:41;;;;;;;28.30;22.75;;;9.40;99.90;;;;;;4972161;28;20478;-55
2023/04/16 08:36:27;;;;;;;28.35;22.67;;;9.40;99.90;;;;;;4952072;28;20042;-56
2023/04/16 08:39:13;;;;;;;27.17;22.40;;;9.40;99.90;;;;;;4954334;28;20650;-52
2023/04/16 08:42:01;;;;;;;25.67;20.58;;;9.40;99.90;;;;;;4971245;28;20172;-55
2023/04/16 08:44:51;;;;;;;25.45;21.92;;;9.30;99.90;;;;;;4971203;28;20436;-54
2023/04/16 08:47:38;;;;;;;23.25;20.10;;;9.40;99.90;;;;;;4970153;28;20038;-57
2023/04/16 08:50:25;;;;;;;23.13;19.52;;;9.40;99.90;;;;;;4971382;28;20117;-57
2023/04/16 08:53:17;;;;;;;30.08;22.50;;;9.50;99.90;;;;;;4970665;28;20057;-57
2023/04/16 08:56:07;;;;;;;27.30;22.33;;;9.40;99.90;;;;;;4938303;29;20070;-57
2023/04/16 08:58:54;;;;;;;25.77;21.23;;;9.40;99.90;;;;;;4953368;28;20066;-53
2023/04/16 09:01:40;;;;;;;27.48;21.77;;;9.40;99.90;;;;;;4971572;28;20512;-54
2023/04/16 09:04:27;;;;;;;24.88;20.55;;;9.40;99.90;;;;;;4971595;28;20408;-57
2023/04/16 09:07:14;;;;;;;24.23;19.30;;;9.40;99.90;;;;;;4970346;28;20447;-56
2023/04/16 09:10:00;;;;;;;23.55;19.08;;;9.40;99.90;;;;;;4970262;28;20109;-55
2023/04/16 09:12:46;;;;;;;26.08;20.23;;;9.40;99.90;;;;;;4970506;28;20031;-56
2023/04/16 09:15:34;;;;;;;27.35;20.13;;;9.50;99.90;;;;;;4952313;28;20035;-56
2023/04/16 09:18:20;;;;;;;22.48;19.27;;;9.50;99.90;;;;;;4956190;28;20039;-59
2023/04/16 09:21:09;;;;;;;23.60;20.40;;;9.40;99.90;;;;;;4970712;28;20504;-56
2023/04/16 09:23:55;;;;;;;27.60;20.95;;;9.50;99.90;;;;;;4970874;28;20089;-58
2023/04/16 09:26:42;;;;;;;26.70;21.58;;;9.50;99.90;;;;;;4970906;28;20062;-55
2023/04/16 09:29:36;;;;;;;30.05;23.17;;;9.40;99.90;;;;;;4970900;28;20041;-56
2023/04/16 09:32:26;;;;;;;26.77;21.90;;;9.40;99.90;;;;;;4963771;28;20023;-58
2023/04/16 09:35:13;;;;;;;29.40;23.80;;;9.50;99.90;;;;;;4957050;28;20030;-56
2023/04/16 09:38:00;;;;;;;29.73;23.08;;;9.50;99.90;;;;;;4970477;28;20073;-59
2023/04/16 09:40:46;;;;;;;28.15;23.63;;;9.50;99.90;;;;;;4956988;28;20504;-57
2023/04/16 09:43:32;;;;;;;28.42;23.17;;;9.50;99.90;;;;;;4971459;28;20488;-56
2023/04/16 09:46:18;;;;;;;30.23;22.88;;;9.60;99.90;;;;;;4969442;28;20046;-57
2023/04/16 09:49:15;;;;;;;26.48;22.58;;;9.70;99.90;;;;;;4970736;28;20065;-57
2023/04/16 09:52:01;;;;;;;27.88;22.95;;;9.70;99.90;;;;;;4975706;28;20059;-54
2023/04/16 09:54:52;;;;;;;32.30;23.30;;;9.70;99.90;;;;;;4971768;28;20039;-53
2023/04/16 09:57:41;;;;;;;32.65;23.98;;;9.70;99.90;;;;;;4980724;28;20031;-59
2023/04/16 10:00:28;;;;;;;30.15;22.92;;;9.80;99.90;;;;;;4977695;28;20051;-59
2023/04/16 10:03:14;;;;;;;29.75;23.35;;;9.70;99.90;;;;;;4961066;28;20492;-59
2023/04/16 10:06:17;;;;;;;27.63;22.10;;;9.80;99.90;;;;;;4973387;28;20031;-56
2023/04/16 10:09:07;;;;;;;26.90;21.98;;;9.80;99.90;;;;;;4973573;28;20027;-59
2023/04/16 10:11:53;;;;;;;29.33;22.52;;;9.80;99.90;;;;;;4974343;28;20527;-58
2023/04/16 10:14:40;;;;;;;29.98;23.73;;;9.90;99.90;;;;;;4953389;29;20576;-57
2023/04/16 10:17:28;;;;;;;31.13;24.50;;;9.80;99.90;;;;;;4954400;28;20027;-59
2023/04/16 10:20:16;;;;;;;29.70;25.23;;;9.70;99.90;;;;;;4964382;28;20070;-57
2023/04/16 10:23:02;;;;;;;29.63;24.08;;;9.70;99.90;;;;;;4973598;28;20026;-54
2023/04/16 10:25:49;;;;;;;32.55;24.05;;;9.80;99.90;;;;;;4973570;28;20027;-57
2023/04/16 10:28:36;;;;;;;34.30;25.13;;;9.80;99.90;;;;;;4973706;28;20043;-57
2023/04/16 10:31:23;;;;;;;31.20;24.42;;;9.80;99.90;;;;;;4973956;28;20030;-58
2023/04/16 10:34:10;;;;;;;28.85;23.60;;;9.90;99.90;;;;;;4973821;28;20408;-59
2023/04/16 10:36:56;;;;;;;31.75;25.42;;;10.00;99.90;;;;;;4959054;28;20038;-53
2023/04/16 10:39:42;;;;;;;29.52;24.38;;;9.90;99.90;;;;;;4953121;28;20035;-54
2023/04/16 10:42:28;;;;;;;36.05;27.15;;;10.00;99.90;;;;;;4957418;28;20023;-57
2023/04/16 10:45:15;;;;;;;36.42;26.42;;;9.90;99.90;;;;;;4969386;28;20065;-56
2023/04/16 10:48:05;;;;;;;31.80;25.88;;;9.90;99.90;;;;;;4973249;28;20110;-54
2023/04/16 10:50:56;;;;;;;31.75;24.65;;;9.90;99.90;;;;;;4964969;28;20464;-58
2023/04/16 10:53:42;;;;;;;33.33;25.63;;;9.80;99.90;;;;;;4959901;28;20023;-57
2023/04/16 10:56:31;;;;;;;31.77;25.15;;;9.70;99.90;;;;;;4969483;28;20038;-57
2023/04/16 10:59:19;;;;;;;33.67;25.75;;;9.80;99.90;;;;;;4966528;28;20043;-58
2023/04/16 11:02:13;;;;;;;32.17;25.77;;;9.70;99.90;;;;;;4954061;29;20055;-54
2023/04/16 11:05:00;;;;;;;35.08;26.15;;;9.80;99.90;;;;;;4955160;28;20419;-53
2023/04/16 11:07:47;;;;;;;34.70;26.17;;;9.80;99.90;;;;;;4965412;28;20041;-57
2023/04/16 11:10:38;;;;;;;35.80;26.48;;;9.80;99.90;;;;;;4957200;28;20462;-61
2023/04/16 11:13:24;;;;;;;33.72;25.63;;;9.80;99.90;;;;;;4964682;28;20031;-61
2023/04/16 11:16:14;;;;;;;32.20;25.58;;;9.80;99.90;;;;;;4967110;28;20113;-56
2023/04/16 11:19:01;;;;;;;33.65;25.92;;;9.80;99.90;;;;;;4968272;28;20077;-51
2023/04/16 11:21:46;;;;;;;30.33;23.58;;;9.80;99.90;;;;;;4961390;28;20086;-55
2023/04/16 11:24:32;;;;;;;35.42;26.58;;;9.70;99.90;;;;;;4968412;28;20052;-58
2023/04/16 11:27:18;;;;;;;38.05;27.40;;;9.70;99.90;;;;;;4966975;28;20050;-52
2023/04/16 11:30:08;;;;;;;37.83;25.65;;;9.80;99.90;;;;;;4972461;28;20038;-56
2023/04/16 11:32:54;;;;;;;31.45;23.92;;;9.90;99.90;;;;;;4972979;28;20031;-56
2023/04/16 11:35:42;;;;;;;36.72;26.23;;;9.80;99.90;;;;;;4972753;28;20509;-59
2023/04/16 11:38:36;;;;;;;33.47;24.83;;;9.80;99.90;;;;;;4972841;28;20559;-58
2023/04/16 11:41:22;;;;;;;33.63;25.02;;;9.90;99.90;;;;;;4974151;28;20029;-54
2023/04/16 11:44:27;;;;;;;31.83;25.45;;;10.00;99.90;;;;;;4974024;28;20408;-52
2023/04/16 11:47:12;;;;;;;27.15;22.13;;;10.00;99.90;;;;;;4972122;28;20119;-53
2023/04/16 11:50:17;;;;;;;33.13;24.52;;;9.90;99.90;;;;;;4972480;28;20524;-55
2023/04/16 11:53:05;;;;;;;33.75;24.58;;;10.00;99.90;;;;;;4971868;28;20035;-53
2023/04/16 11:55:51;;;;;;;33.78;25.15;;;9.90;99.90;;;;;;4959215;28;20154;-53
2023/04/16 11:58:37;;;;;;;34.33;25.70;;;10.00;99.90;;;;;;4971468;28;20415;-57
2023/04/16 12:01:23;;;;;;;36.60;27.48;;;10.00;99.90;;;;;;4971920;28;20033;-54
2023/04/16 12:04:09;;;;;;;33.10;25.38;;;10.00;99.90;;;;;;4971987;28;20030;-52
2023/04/16 12:07:13;;;;;;;34.83;25.67;;;10.00;99.90;;;;;;4971146;28;20570;-55
2023/04/16 12:10:06;;;;;;;30.60;25.40;;;10.00;99.90;;;;;;4963214;28;20027;-57
2023/04/16 12:12:53;;;;;;;40.33;30.33;;;10.00;99.90;;;;;;4972805;28;20491;-53
2023/04/16 12:15:51;;;;;;;37.47;28.20;;;10.10;99.90;;;;;;4970538;28;20437;-54
2023/04/16 12:18:58;;;;;;;38.20;27.95;;;10.10;99.90;;;;;;4971311;28;20027;-56
2023/04/16 12:21:46;;;;;;;40.65;28.73;;;10.10;99.90;;;;;;4970266;28;20113;-53
2023/04/16 12:24:35;;;;;;;40.30;29.63;;;9.90;99.90;;;;;;4970061;28;20027;-50
2023/04/16 12:27:22;;;;;;;42.97;31.10;;;9.80;99.90;;;;;;4957259;28;20122;-51
2023/04/16 12:30:08;;;;;;;39.67;29.23;;;9.80;99.90;;;;;;4971262;28;20034;-58
2023/04/16 12:33:14;;;;;;;38.28;28.75;;;9.80;99.90;;;;;;4971350;28;20031;-56
2023/04/16 12:36:02;;;;;;;38.83;30.08;;;9.80;99.90;;;;;;4959097;28;20031;-52
2023/04/16 12:38:48;;;;;;;37.65;28.52;;;9.80;99.90;;;;;;4969605;28;20407;-52
2023/04/16 12:41:37;;;;;;;39.38;29.23;;;9.80;99.90;;;;;;4971476;28;20519;-56
2023/04/16 12:44:26;;;;;;;40.05;29.13;;;9.80;99.90;;;;;;4967331;28;20032;-49
2023/04/16 12:47:12;;;;;;;40.85;30.35;;;9.80;99.90;;;;;;4958424;28;20046;-55
2023/04/16 12:49:59;;;;;;;38.42;29.17;;;9.80;99.90;;;;;;4953078;28;20031;-58
2023/04/16 12:52:45;;;;;;;39.10;29.40;;;9.90;99.90;;;;;;4949462;28;20027;-54
2023/04/16 12:55:31;;;;;;;40.03;28.92;;;10.00;99.90;;;;;;4971261;28;20404;-53
2023/04/16 12:58:17;;;;;;;39.28;28.25;;;10.00;99.90;;;;;;4940921;28;20129;-55
2023/04/16 13:01:03;;;;;;;38.60;27.08;;;10.10;99.90;;;;;;4970647;28;20027;-53
2023/04/16 13:03:49;;;;;;;35.95;27.45;;;10.00;99.90;;;;;;4952505;29;20057;-58
2023/04/16 13:06:36;;;;;;;38.85;29.58;;;10.00;99.90;;;;;;4964399;28;20118;-59
2023/04/16 13:09:22;;;;;;;33.20;27.00;;;10.10;99.90;;;;;;4970943;28;20039;-56
2023/04/16 13:12:08;;;;;;;36.10;26.63;;;10.10;99.90;;;;;;4951674;28;20038;-58
2023/04/16 13:14:54;;;;;;;37.03;28.40;;;10.20;99.90;;;;;;4949884;29;20447;-52
2023/04/16 13:17:40;;;;;;;37.13;28.75;;;10.20;99.90;;;;;;4961292;28;20050;-59
2023/04/16 13:20:26;;;;;;;39.20;30.00;;;10.20;99.90;;;;;;4971939;28;21491;-59
2023/04/16 13:23:12;;;;;;;37.63;29.25;;;10.20;99.90;;;;;;4969572;28;20031;-56
2023/04/16 13:25:58;;;;;;;43.45;32.38;;;10.20;99.90;;;;;;4969079;28;20019;-52
2023/04/16 13:28:44;;;;;;;39.70;30.50;;;10.10;99.90;;;;;;4967726;28;20415;-56
2023/04/16 13:31:30;;;;;;;38.30;30.02;;;10.20;99.90;;;;;;4969264;28;20027;-56
2023/04/16 13:34:16;;;;;;;42.55;31.42;;;10.20;99.90;;;;;;4971041;28;20125;-56
2023/04/16 13:37:02;;;;;;;39.20;30.23;;;10.30;99.90;;;;;;4972630;28;20513;-57
2023/04/16 13:39:48;;;;;;;38.97;30.48;;;10.20;99.90;;;;;;4969820;28;20106;-56
2023/04/16 13:42:34;;;;;;;37.88;27.50;;;10.30;99.90;;;;;;4973158;28;20126;-53
2023/04/16 13:45:20;;;;;;;36.90;27.13;;;10.30;99.90;;;;;;4974056;28;20037;-56
2023/04/16 13:48:07;;;;;;;35.08;26.10;;;10.30;99.90;;;;;;4969847;28;20499;-58
2023/04/16 13:50:52;;;;;;;35.75;26.85;;;10.30;99.90;;;;;;4966089;28;20470;-56
2023/04/16 13:53:38;;;;;;;36.42;26.65;;;10.40;99.90;;;;;;4979001;28;20157;-57
2023/04/16 13:56:24;;;;;;;33.55;26.00;;;10.30;99.90;;;;;;4976276;28;20082;-54
2023/04/16 13:59:10;;;;;;;33.53;25.38;;;10.30;99.90;;;;;;4973938;28;20031;-58
2023/04/16 14:01:56;;;;;;;38.80;25.98;;;10.30;99.90;;;;;;4958706;28;20027;-55
2023/04/16 14:04:42;;;;;;;30.90;24.52;;;10.30;99.90;;;;;;4981057;28;20054;-55
2023/04/16 14:07:28;;;;;;;44.58;29.63;;;10.40;99.90;;;;;;4961206;28;20042;-55
2023/04/16 14:10:15;;;;;;;34.25;27.50;;;10.40;99.90;;;;;;4966065;28;20022;-51
2023/04/16 14:13:01;;;;;;;34.88;25.65;;;10.40;99.90;;;;;;4967913;28;20070;-58